sensor_id;sensor_type;location;lat;lon;timestamp;P1;durP1;ratioP1;P2;durP2;ratioP2
43297;SDS011;28892;55.640;37.532;2023-04-01T00:01:13;12.17;;;10.33;;
43297;SDS011;28892;55.640;37.532;2023-04-01T00:03:40;11.80;;;10.17;;
43297;SDS011;28892;55.640;37.532;2023-04-01T00:06:10;12.40;;;10.07;;
43297;SDS011;28892;55.640;37.532;2023-04-01T00:08:39;11.77;;;9.90;;
43297;SDS011;28892;55.640;37.532;2023-04-01T00:11:04;13.40;;;10.37;;
43297;SDS011;28892;55.640;37.532;2023-04-01T00:13:30;11.20;;;9.00;;
43297;SDS011;28892;55.640;37.532;2023-04-01T00:15:56;10.57;;;8.67;;
43297;SDS011;28892;55.640;37.532;2023-04-01T00:18:22;10.93;;;9.33;;
43297;SDS011;28892;55.640;37.532;2023-04-01T00:20:49;11.67;;;9.07;;
43297;SDS011;28892;55.640;37.532;2023-04-01T00:23:17;10.40;;;8.63;;
43297;SDS011;28892;55.640;37.532;2023-04-01T00:25:43;11.43;;;9.17;;
43297;SDS011;28892;55.640;37.532;2023-04-01T00:28:11;11.00;;;9.00;;
43297;SDS011;28892;55.640;37.532;2023-04-01T00:30:36;11.03;;;8.83;;
43297;SDS011;28892;55.640;37.532;2023-04-01T00:33:03;11.13;;;9.37;;
43297;SDS011;28892;55.640;37.532;2023-04-01T00:35:29;11.30;;;9.33;;
43297;SDS011;28892;55.640;37.532;2023-04-01T00:37:55;11.23;;;9.57;;
43297;SDS011;28892;55.640;37.532;2023-04-01T00:40:25;11.07;;;8.93;;
43297;SDS011;28892;55.640;37.532;2023-04-01T00:43:18;10.23;;;8.97;;
43297;SDS011;28892;55.640;37.532;2023-04-01T00:45:46;10.93;;;8.63;;
43297;SDS011;28892;55.640;37.532;2023-04-01T00:48:17;10.67;;;9.13;;
43297;SDS011;28892;55.640;37.532;2023-04-01T00:50:49;10.80;;;9.03;;
43297;SDS011;28892;55.640;37.532;2023-04-01T00:53:19;11.70;;;9.33;;
43297;SDS011;28892;55.640;37.532;2023-04-01T00:55:51;12.20;;;9.43;;
43297;SDS011;28892;55.640;37.532;2023-04-01T00:58:23;10.77;;;9.17;;
43297;SDS011;28892;55.640;37.532;2023-04-01T01:00:50;12.37;;;10.13;;
43297;SDS011;28892;55.640;37.532;2023-04-01T01:03:17;12.70;;;10.07;;
43297;SDS011;28892;55.640;37.532;2023-04-01T01:11:09;13.13;;;10.43;;
43297;SDS011;28892;55.640;37.532;2023-04-01T01:13:49;14.53;;;11.33;;
43297;SDS011;28892;55.640;37.532;2023-04-01T01:16:51;12.23;;;10.37;;
43297;SDS011;28892;55.640;37.532;2023-04-01T01:27:34;14.57;;;11.10;;
43297;SDS011;28892;55.640;37.532;2023-04-01T01:30:10;12.27;;;9.77;;
43297;SDS011;28892;55.640;37.532;2023-04-01T01:35:24;14.40;;;11.37;;
43297;SDS011;28892;55.640;37.532;2023-04-01T01:38:05;14.73;;;10.90;;
43297;SDS011;28892;55.640;37.532;2023-04-01T01:40:35;15.67;;;12.00;;
43297;SDS011;28892;55.640;37.532;2023-04-01T01:43:06;13.87;;;11.50;;
43297;SDS011;28892;55.640;37.532;2023-04-01T01:45:39;17.97;;;12.93;;
43297;SDS011;28892;55.640;37.532;2023-04-01T01:48:09;17.43;;;12.70;;
43297;SDS011;28892;55.640;37.532;2023-04-01T01:50:36;16.53;;;12.00;;
43297;SDS011;28892;55.640;37.532;2023-04-01T01:53:05;17.10;;;12.20;;
43297;SDS011;28892;55.640;37.532;2023-04-01T01:55:36;16.13;;;11.93;;
43297;SDS011;28892;55.640;37.532;2023-04-01T02:00:53;15.20;;;10.10;;
43297;SDS011;28892;55.640;37.532;2023-04-01T02:03:22;15.40;;;12.00;;
43297;SDS011;28892;55.640;37.532;2023-04-01T02:05:51;15.73;;;11.97;;
43297;SDS011;28892;55.640;37.532;2023-04-01T02:08:25;15.40;;;11.47;;
43297;SDS011;28892;55.640;37.532;2023-04-01T02:10:56;13.63;;;11.37;;
43297;SDS011;28892;55.640;37.532;2023-04-01T02:16:11;14.25;;;10.77;;
43297;SDS011;28892;55.640;37.532;2023-04-01T02:18:59;14.10;;;10.63;;
43297;SDS011;28892;55.640;37.532;2023-04-01T02:21:32;13.82;;;10.23;;
43297;SDS011;28892;55.640;37.532;2023-04-01T02:24:00;12.27;;;9.80;;
43297;SDS011;28892;55.640;37.532;2023-04-01T02:26:29;12.33;;;10.43;;
43297;SDS011;28892;55.640;37.532;2023-04-01T02:28:56;13.33;;;10.00;;
43297;SDS011;28892;55.640;37.532;2023-04-01T02:31:25;12.03;;;10.00;;
43297;SDS011;28892;55.640;37.532;2023-04-01T02:33:51;12.87;;;9.63;;
43297;SDS011;28892;55.640;37.532;2023-04-01T02:36:17;12.70;;;10.30;;
43297;SDS011;28892;55.640;37.532;2023-04-01T02:38:44;14.23;;;10.70;;
43297;SDS011;28892;55.640;37.532;2023-04-01T02:41:10;12.47;;;10.40;;
43297;SDS011;28892;55.640;37.532;2023-04-01T02:43:37;12.50;;;9.83;;
43297;SDS011;28892;55.640;37.532;2023-04-01T02:46:03;15.33;;;11.90;;
43297;SDS011;28892;55.640;37.532;2023-04-01T02:48:29;13.50;;;10.20;;
43297;SDS011;28892;55.640;37.532;2023-04-01T02:50:55;13.37;;;10.67;;
43297;SDS011;28892;55.640;37.532;2023-04-01T02:53:21;12.30;;;10.03;;
43297;SDS011;28892;55.640;37.532;2023-04-01T02:55:47;11.50;;;9.53;;
43297;SDS011;28892;55.640;37.532;2023-04-01T02:58:16;12.37;;;9.43;;
43297;SDS011;28892;55.640;37.532;2023-04-01T03:00:42;12.47;;;9.63;;
43297;SDS011;28892;55.640;37.532;2023-04-01T03:03:32;11.50;;;8.87;;
43297;SDS011;28892;55.640;37.532;2023-04-01T03:05:58;11.47;;;9.63;;
43297;SDS011;28892;55.640;37.532;2023-04-01T03:08:32;11.43;;;8.63;;
43297;SDS011;28892;55.640;37.532;2023-04-01T03:10:58;10.63;;;9.00;;
43297;SDS011;28892;55.640;37.532;2023-04-01T03:13:25;10.67;;;8.83;;
43297;SDS011;28892;55.640;37.532;2023-04-01T03:15:51;11.03;;;9.23;;
43297;SDS011;28892;55.640;37.532;2023-04-01T03:18:17;10.47;;;9.17;;
43297;SDS011;28892;55.640;37.532;2023-04-01T03:20:43;11.03;;;9.10;;
43297;SDS011;28892;55.640;37.532;2023-04-01T03:23:09;13.87;;;10.10;;
43297;SDS011;28892;55.640;37.532;2023-04-01T03:25:35;11.37;;;9.20;;
43297;SDS011;28892;55.640;37.532;2023-04-01T03:28:02;12.07;;;9.13;;
43297;SDS011;28892;55.640;37.532;2023-04-01T03:30:28;10.27;;;8.33;;
43297;SDS011;28892;55.640;37.532;2023-04-01T03:32:56;10.47;;;8.40;;
43297;SDS011;28892;55.640;37.532;2023-04-01T03:35:23;11.90;;;8.00;;
43297;SDS011;28892;55.640;37.532;2023-04-01T03:37:50;10.23;;;8.33;;
43297;SDS011;28892;55.640;37.532;2023-04-01T03:40:17;10.03;;;8.80;;
43297;SDS011;28892;55.640;37.532;2023-04-01T03:42:43;12.07;;;8.30;;
43297;SDS011;28892;55.640;37.532;2023-04-01T03:45:09;9.47;;;7.93;;
43297;SDS011;28892;55.640;37.532;2023-04-01T03:47:37;9.40;;;8.27;;
43297;SDS011;28892;55.640;37.532;2023-04-01T03:50:04;11.00;;;8.43;;
43297;SDS011;28892;55.640;37.532;2023-04-01T03:52:32;10.43;;;8.23;;
43297;SDS011;28892;55.640;37.532;2023-04-01T03:54:58;11.07;;;8.00;;
43297;SDS011;28892;55.640;37.532;2023-04-01T03:57:30;10.50;;;8.57;;
43297;SDS011;28892;55.640;37.532;2023-04-01T04:02:28;11.23;;;7.27;;
43297;SDS011;28892;55.640;37.532;2023-04-01T04:04:54;9.93;;;8.27;;
43297;SDS011;28892;55.640;37.532;2023-04-01T04:07:20;11.93;;;8.53;;
43297;SDS011;28892;55.640;37.532;2023-04-01T04:10:02;10.70;;;7.97;;
43297;SDS011;28892;55.640;37.532;2023-04-01T04:12:29;8.87;;;7.63;;
43297;SDS011;28892;55.640;37.532;2023-04-01T04:14:55;9.80;;;8.50;;
43297;SDS011;28892;55.640;37.532;2023-04-01T04:17:21;8.17;;;7.30;;
43297;SDS011;28892;55.640;37.532;2023-04-01T04:19:48;9.43;;;7.93;;
43297;SDS011;28892;55.640;37.532;2023-04-01T04:22:14;9.47;;;7.80;;
43297;SDS011;28892;55.640;37.532;2023-04-01T04:24:40;8.63;;;7.53;;
43297;SDS011;28892;55.640;37.532;2023-04-01T04:27:09;8.87;;;7.33;;
43297;SDS011;28892;55.640;37.532;2023-04-01T04:29:42;8.10;;;7.30;;
43297;SDS011;28892;55.640;37.532;2023-04-01T04:32:09;8.83;;;7.13;;
43297;SDS011;28892;55.640;37.532;2023-04-01T04:34:35;9.70;;;8.33;;
43297;SDS011;28892;55.640;37.532;2023-04-01T04:37:01;11.07;;;7.77;;
43297;SDS011;28892;55.640;37.532;2023-04-01T04:39:30;9.73;;;8.00;;
43297;SDS011;28892;55.640;37.532;2023-04-01T04:41:56;9.03;;;7.60;;
43297;SDS011;28892;55.640;37.532;2023-04-01T04:44:22;9.93;;;7.70;;
43297;SDS011;28892;55.640;37.532;2023-04-01T04:46:48;9.67;;;7.67;;
43297;SDS011;28892;55.640;37.532;2023-04-01T04:49:15;10.03;;;7.67;;
43297;SDS011;28892;55.640;37.532;2023-04-01T04:51:43;9.60;;;7.87;;
43297;SDS011;28892;55.640;37.532;2023-04-01T04:54:10;10.73;;;7.83;;
43297;SDS011;28892;55.640;37.532;2023-04-01T04:56:52;10.03;;;8.20;;
43297;SDS011;28892;55.640;37.532;2023-04-01T04:59:19;11.40;;;8.23;;
43297;SDS011;28892;55.640;37.532;2023-04-01T05:02:03;11.10;;;8.77;;
43297;SDS011;28892;55.640;37.532;2023-04-01T05:04:29;11.00;;;9.07;;
43297;SDS011;28892;55.640;37.532;2023-04-01T05:06:54;10.93;;;8.67;;
43297;SDS011;28892;55.640;37.532;2023-04-01T05:09:21;11.83;;;9.13;;
43297;SDS011;28892;55.640;37.532;2023-04-01T05:11:47;12.30;;;9.10;;
43297;SDS011;28892;55.640;37.532;2023-04-01T05:14:16;13.00;;;9.23;;
43297;SDS011;28892;55.640;37.532;2023-04-01T05:16:50;12.63;;;9.50;;
43297;SDS011;28892;55.640;37.532;2023-04-01T05:19:15;13.40;;;9.47;;
43297;SDS011;28892;55.640;37.532;2023-04-01T05:21:41;10.50;;;8.40;;
43297;SDS011;28892;55.640;37.532;2023-04-01T05:24:07;11.60;;;8.73;;
43297;SDS011;28892;55.640;37.532;2023-04-01T05:26:35;11.77;;;8.90;;
43297;SDS011;28892;55.640;37.532;2023-04-01T05:29:04;15.50;;;9.47;;
43297;SDS011;28892;55.640;37.532;2023-04-01T05:31:31;12.80;;;9.37;;
43297;SDS011;28892;55.640;37.532;2023-04-01T05:33:57;13.87;;;9.33;;
43297;SDS011;28892;55.640;37.532;2023-04-01T05:36:23;15.20;;;10.27;;
43297;SDS011;28892;55.640;37.532;2023-04-01T05:38:49;14.10;;;9.97;;
43297;SDS011;28892;55.640;37.532;2023-04-01T05:41:17;13.10;;;9.80;;
43297;SDS011;28892;55.640;37.532;2023-04-01T05:43:45;14.10;;;10.90;;
43297;SDS011;28892;55.640;37.532;2023-04-01T05:46:42;12.87;;;9.63;;
43297;SDS011;28892;55.640;37.532;2023-04-01T05:49:20;13.50;;;9.70;;
43297;SDS011;28892;55.640;37.532;2023-04-01T05:51:48;14.13;;;10.13;;
43297;SDS011;28892;55.640;37.532;2023-04-01T05:54:14;14.10;;;10.10;;
43297;SDS011;28892;55.640;37.532;2023-04-01T05:56:45;12.63;;;9.67;;
43297;SDS011;28892;55.640;37.532;2023-04-01T05:59:11;14.67;;;10.83;;
43297;SDS011;28892;55.640;37.532;2023-04-01T06:01:38;16.43;;;10.90;;
43297;SDS011;28892;55.640;37.532;2023-04-01T06:04:13;14.88;;;11.02;;
43297;SDS011;28892;55.640;37.532;2023-04-01T06:06:52;17.17;;;11.47;;
43297;SDS011;28892;55.640;37.532;2023-04-01T06:09:21;16.23;;;11.00;;
43297;SDS011;28892;55.640;37.532;2023-04-01T06:15:02;15.32;;;10.85;;
43297;SDS011;28892;55.640;37.532;2023-04-01T06:18:02;18.03;;;11.83;;
43297;SDS011;28892;55.640;37.532;2023-04-01T06:35:48;19.87;;;12.60;;
43297;SDS011;28892;55.640;37.532;2023-04-01T06:38:41;20.77;;;14.00;;
43297;SDS011;28892;55.640;37.532;2023-04-01T07:03:15;24.80;;;16.10;;
43297;SDS011;28892;55.640;37.532;2023-04-01T07:06:19;22.92;;;16.45;;
43297;SDS011;28892;55.640;37.532;2023-04-01T07:09:18;24.43;;;16.30;;
43297;SDS011;28892;55.640;37.532;2023-04-01T07:16:38;24.23;;;16.13;;
43297;SDS011;28892;55.640;37.532;2023-04-01T07:24:04;23.95;;;14.25;;
43297;SDS011;28892;55.640;37.532;2023-04-01T07:26:58;20.15;;;14.05;;
43297;SDS011;28892;55.640;37.532;2023-04-01T07:29:28;21.45;;;14.05;;
43297;SDS011;28892;55.640;37.532;2023-04-01T07:32:21;18.75;;;14.07;;
43297;SDS011;28892;55.640;37.532;2023-04-01T07:35:09;20.48;;;13.13;;
43297;SDS011;28892;55.640;37.532;2023-04-01T07:51:51;16.95;;;11.98;;
43297;SDS011;28892;55.640;37.532;2023-04-01T07:54:58;17.98;;;12.27;;
43297;SDS011;28892;55.640;37.532;2023-04-01T08:00:42;17.42;;;12.23;;
43297;SDS011;28892;55.640;37.532;2023-04-01T08:06:06;17.38;;;12.00;;
43297;SDS011;28892;55.640;37.532;2023-04-01T08:08:49;19.15;;;14.18;;
43297;SDS011;28892;55.640;37.532;2023-04-01T08:21:05;18.90;;;14.27;;
43297;SDS011;28892;55.640;37.532;2023-04-01T08:23:47;18.20;;;12.95;;
43297;SDS011;28892;55.640;37.532;2023-04-01T08:28:59;22.15;;;14.23;;
43297;SDS011;28892;55.640;37.532;2023-04-01T08:31:40;18.23;;;12.60;;
43297;SDS011;28892;55.640;37.532;2023-04-01T08:34:18;19.42;;;11.60;;
43297;SDS011;28892;55.640;37.532;2023-04-01T08:37:13;17.55;;;11.02;;
43297;SDS011;28892;55.640;37.532;2023-04-01T08:39:56;16.33;;;11.93;;
43297;SDS011;28892;55.640;37.532;2023-04-01T08:54:08;16.98;;;11.65;;
43297;SDS011;28892;55.640;37.532;2023-04-01T08:57:08;13.90;;;10.85;;
43297;SDS011;28892;55.640;37.532;2023-04-01T09:03:32;17.23;;;9.70;;
43297;SDS011;28892;55.640;37.532;2023-04-01T09:11:59;13.13;;;9.20;;
43297;SDS011;28892;55.640;37.532;2023-04-01T09:28:51;10.85;;;8.80;;
43297;SDS011;28892;55.640;37.532;2023-04-01T09:37:52;10.13;;;7.63;;
43297;SDS011;28892;55.640;37.532;2023-04-01T09:59:38;10.73;;;8.77;;
43297;SDS011;28892;55.640;37.532;2023-04-01T10:02:44;8.48;;;7.00;;
43297;SDS011;28892;55.640;37.532;2023-04-01T10:05:38;9.10;;;7.50;;
43297;SDS011;28892;55.640;37.532;2023-04-01T10:25:57;9.73;;;7.13;;
43297;SDS011;28892;55.640;37.532;2023-04-01T10:28:27;6.82;;;5.35;;
43297;SDS011;28892;55.640;37.532;2023-04-01T11:10:33;7.13;;;5.20;;
43297;SDS011;28892;55.640;37.532;2023-04-01T11:21:42;8.10;;;6.40;;
43297;SDS011;28892;55.640;37.532;2023-04-01T11:24:30;6.70;;;4.78;;
43297;SDS011;28892;55.640;37.532;2023-04-01T11:33:19;11.55;;;5.28;;
43297;SDS011;28892;55.640;37.532;2023-04-01T11:35:55;8.00;;;4.80;;
43297;SDS011;28892;55.640;37.532;2023-04-01T11:44:19;6.05;;;5.00;;
43297;SDS011;28892;55.640;37.532;2023-04-01T11:47:45;4.80;;;4.20;;
43297;SDS011;28892;55.640;37.532;2023-04-01T11:50:46;5.88;;;4.32;;
43297;SDS011;28892;55.640;37.532;2023-04-01T11:53:47;6.03;;;4.82;;
43297;SDS011;28892;55.640;37.532;2023-04-01T11:56:43;6.43;;;5.00;;
43297;SDS011;28892;55.640;37.532;2023-04-01T12:01:59;7.50;;;5.15;;
43297;SDS011;28892;55.640;37.532;2023-04-01T12:21:07;6.68;;;4.57;;
43297;SDS011;28892;55.640;37.532;2023-04-01T12:51:23;9.52;;;6.25;;
43297;SDS011;28892;55.640;37.532;2023-04-01T13:10:24;10.30;;;7.47;;
43297;SDS011;28892;55.640;37.532;2023-04-01T13:24:49;10.88;;;7.35;;
43297;SDS011;28892;55.640;37.532;2023-04-01T13:27:44;10.80;;;7.38;;
43297;SDS011;28892;55.640;37.532;2023-04-01T13:35:47;11.80;;;8.25;;
43297;SDS011;28892;55.640;37.532;2023-04-01T13:38:25;8.55;;;7.43;;
43297;SDS011;28892;55.640;37.532;2023-04-01T13:44:42;10.70;;;7.63;;
43297;SDS011;28892;55.640;37.532;2023-04-01T13:53:01;9.45;;;6.63;;
43297;SDS011;28892;55.640;37.532;2023-04-01T14:12:40;10.85;;;8.32;;
43297;SDS011;28892;55.640;37.532;2023-04-01T14:39:56;14.07;;;9.18;;
43297;SDS011;28892;55.640;37.532;2023-04-01T14:54:12;12.70;;;9.52;;
43297;SDS011;28892;55.640;37.532;2023-04-01T14:56:49;12.43;;;9.50;;
43297;SDS011;28892;55.640;37.532;2023-04-01T15:01:50;11.75;;;10.23;;
43297;SDS011;28892;55.640;37.532;2023-04-01T15:43:27;13.07;;;9.95;;
43297;SDS011;28892;55.640;37.532;2023-04-01T15:51:48;13.07;;;9.95;;
43297;SDS011;28892;55.640;37.532;2023-04-01T16:24:48;12.75;;;9.90;;
43297;SDS011;28892;55.640;37.532;2023-04-01T16:30:23;12.18;;;9.43;;
43297;SDS011;28892;55.640;37.532;2023-04-01T16:43:50;17.10;;;10.98;;
43297;SDS011;28892;55.640;37.532;2023-04-01T16:46:39;13.55;;;10.23;;
43297;SDS011;28892;55.640;37.532;2023-04-01T16:57:52;12.65;;;9.65;;
43297;SDS011;28892;55.640;37.532;2023-04-01T17:00:27;13.82;;;10.38;;
43297;SDS011;28892;55.640;37.532;2023-04-01T17:17:48;11.18;;;9.25;;
43297;SDS011;28892;55.640;37.532;2023-04-01T17:20:40;12.63;;;11.10;;
43297;SDS011;28892;55.640;37.532;2023-04-01T17:23:29;12.35;;;8.82;;
43297;SDS011;28892;55.640;37.532;2023-04-01T17:26:20;12.68;;;9.75;;
43297;SDS011;28892;55.640;37.532;2023-04-01T17:29:22;12.60;;;10.20;;
43297;SDS011;28892;55.640;37.532;2023-04-01T17:46:11;12.45;;;10.55;;
43297;SDS011;28892;55.640;37.532;2023-04-01T17:52:06;13.18;;;10.25;;
43297;SDS011;28892;55.640;37.532;2023-04-01T18:05:48;13.23;;;9.63;;
43297;SDS011;28892;55.640;37.532;2023-04-01T18:11:05;14.55;;;11.43;;
43297;SDS011;28892;55.640;37.532;2023-04-01T18:14:01;13.48;;;10.07;;
43297;SDS011;28892;55.640;37.532;2023-04-01T18:22:25;14.65;;;11.00;;
43297;SDS011;28892;55.640;37.532;2023-04-01T18:27:51;14.63;;;11.68;;
43297;SDS011;28892;55.640;37.532;2023-04-01T18:30:26;13.93;;;10.85;;
43297;SDS011;28892;55.640;37.532;2023-04-01T18:41:10;15.80;;;13.57;;
43297;SDS011;28892;55.640;37.532;2023-04-01T18:46:41;15.23;;;12.23;;
43297;SDS011;28892;55.640;37.532;2023-04-01T18:49:25;16.85;;;13.07;;
43297;SDS011;28892;55.640;37.532;2023-04-01T18:51:59;16.48;;;13.25;;
43297;SDS011;28892;55.640;37.532;2023-04-01T18:54:45;14.55;;;12.40;;
43297;SDS011;28892;55.640;37.532;2023-04-01T18:57:16;14.60;;;11.57;;
43297;SDS011;28892;55.640;37.532;2023-04-01T18:59:55;15.10;;;11.93;;
43297;SDS011;28892;55.640;37.532;2023-04-01T19:02:40;16.27;;;13.63;;
43297;SDS011;28892;55.640;37.532;2023-04-01T19:05:14;14.32;;;11.43;;
43297;SDS011;28892;55.640;37.532;2023-04-01T19:07:52;15.55;;;11.68;;
43297;SDS011;28892;55.640;37.532;2023-04-01T19:13:31;15.57;;;12.20;;
43297;SDS011;28892;55.640;37.532;2023-04-01T19:16:12;16.92;;;13.00;;
43297;SDS011;28892;55.640;37.532;2023-04-01T19:22:11;15.30;;;11.60;;
43297;SDS011;28892;55.640;37.532;2023-04-01T19:27:51;16.92;;;12.30;;
43297;SDS011;28892;55.640;37.532;2023-04-01T19:35:47;17.13;;;13.18;;
43297;SDS011;28892;55.640;37.532;2023-04-01T20:01:37;18.75;;;14.18;;
43297;SDS011;28892;55.640;37.532;2023-04-01T20:04:29;15.40;;;13.13;;
43297;SDS011;28892;55.640;37.532;2023-04-01T20:07:50;16.02;;;12.55;;
43297;SDS011;28892;55.640;37.532;2023-04-01T20:12:00;20.65;;;15.35;;
43297;SDS011;28892;55.640;37.532;2023-04-01T20:17:41;17.63;;;13.52;;
43297;SDS011;28892;55.640;37.532;2023-04-01T20:27:47;18.25;;;15.18;;
43297;SDS011;28892;55.640;37.532;2023-04-01T20:37:35;17.30;;;12.65;;
43297;SDS011;28892;55.640;37.532;2023-04-01T20:45:35;19.70;;;14.18;;
43297;SDS011;28892;55.640;37.532;2023-04-01T20:48:24;19.98;;;14.68;;
43297;SDS011;28892;55.640;37.532;2023-04-01T20:51:09;17.05;;;13.88;;
43297;SDS011;28892;55.640;37.532;2023-04-01T20:57:56;17.10;;;14.32;;
43297;SDS011;28892;55.640;37.532;2023-04-01T21:19:39;19.90;;;14.48;;
43297;SDS011;28892;55.640;37.532;2023-04-01T21:34:25;15.05;;;12.35;;
43297;SDS011;28892;55.640;37.532;2023-04-01T21:42:50;18.45;;;14.38;;
43297;SDS011;28892;55.640;37.532;2023-04-01T21:57:24;17.98;;;14.05;;
43297;SDS011;28892;55.640;37.532;2023-04-01T22:05:30;21.23;;;16.08;;
43297;SDS011;28892;55.640;37.532;2023-04-01T22:14:31;22.67;;;14.82;;
43297;SDS011;28892;55.640;37.532;2023-04-01T22:24:06;20.00;;;15.52;;
43297;SDS011;28892;55.640;37.532;2023-04-01T22:26:59;22.90;;;16.77;;
43297;SDS011;28892;55.640;37.532;2023-04-01T22:29:47;20.92;;;14.75;;
43297;SDS011;28892;55.640;37.532;2023-04-01T22:35:33;21.30;;;15.35;;
43297;SDS011;28892;55.640;37.532;2023-04-01T22:41:17;21.13;;;14.90;;
43297;SDS011;28892;55.640;37.532;2023-04-01T22:47:12;22.15;;;15.38;;
43297;SDS011;28892;55.640;37.532;2023-04-01T22:52:30;21.38;;;16.63;;
43297;SDS011;28892;55.640;37.532;2023-04-01T22:55:00;25.63;;;20.50;;
43297;SDS011;28892;55.640;37.532;2023-04-01T23:00:01;24.88;;;18.13;;
43297;SDS011;28892;55.640;37.532;2023-04-01T23:02:46;24.70;;;18.40;;
43297;SDS011;28892;55.640;37.532;2023-04-01T23:10:42;26.55;;;18.13;;
43297;SDS011;28892;55.640;37.532;2023-04-01T23:13:14;24.67;;;17.15;;
43297;SDS011;28892;55.640;37.532;2023-04-01T23:15:45;25.48;;;17.85;;
43297;SDS011;28892;55.640;37.532;2023-04-01T23:18:24;27.55;;;19.23;;
43297;SDS011;28892;55.640;37.532;2023-04-01T23:26:33;31.10;;;24.77;;
43297;SDS011;28892;55.640;37.532;2023-04-01T23:29:07;28.13;;;19.23;;
43297;SDS011;28892;55.640;37.532;2023-04-01T23:31:44;28.73;;;19.75;;
43297;SDS011;28892;55.640;37.532;2023-04-01T23:36:58;25.15;;;18.73;;
43297;SDS011;28892;55.640;37.532;2023-04-01T23:41:58;28.63;;;19.48;;
43297;SDS011;28892;55.640;37.532;2023-04-01T23:44:30;30.05;;;20.10;;
43297;SDS011;28892;55.640;37.532;2023-04-01T23:46:57;32.33;;;21.52;;
43297;SDS011;28892;55.640;37.532;2023-04-01T23:49:33;32.60;;;19.42;;
43297;SDS011;28892;55.640;37.532;2023-04-01T23:52:35;28.67;;;20.02;;
43297;SDS011;28892;55.640;37.532;2023-04-01T23:58:22;30.45;;;19.60;;
